Time;durP1;ratioP1;P1;durP2;ratioP2;P2;SDS_P1;SDS_P2;PMS_P1;PMS_P2;Temp;Humidity;BMP_temperature;BMP_pressure;BME280_temperature;BME280_humidity;BME280_pressure;Samples;Min_cycle;Max_cycle;Signal;HPM_P1;HPM_P2
2022/08/14 00:00:28;;;;;;;;;;;;;;;29.01;47.53;98915.38;2084065;28;19916;-66
2022/08/14 00:01:29;;;;;;;;;;;;;;;29.01;47.31;98912.59;2092313;28;20363;-66
2022/08/14 00:02:29;;;;;;;;;;;;;;;29.02;47.37;98913.41;2089406;28;19911;-66
2022/08/14 00:03:30;;;;;;;;;;;;;;;29.02;47.27;98916.19;2085716;28;19963;-66
2022/08/14 00:04:31;;;;;;;;;;;;;;;29.01;47.43;98912.59;2089329;28;19912;-66
2022/08/14 00:05:31;;;;;;;;;;;;;;;29.01;47.39;98909.81;2089529;28;20633;-66
2022/08/14 00:06:31;;;;;;;;;;;;;;;29.01;47.39;98904.25;2090787;28;19912;-66
2022/08/14 00:07:34;;;;;;;;;;;;;;;29.01;47.42;98904.25;2089303;28;20024;-66
2022/08/14 00:08:34;;;;;;;;;;;;;;;29.00;47.34;98899.78;2089838;28;19983;-66
2022/08/14 00:09:35;;;;;;;;;;;;;;;29.00;47.44;98893.41;2088416;28;20049;-66
2022/08/14 00:10:35;;;;;;;;;;;;;;;29.00;47.54;98890.63;2090689;28;20061;-66
2022/08/14 00:11:36;;;;;;;;;;;;;;;28.99;47.66;98884.25;2085916;28;19924;-66
2022/08/14 00:12:37;;;;;;;;;;;;;;;28.99;47.77;98884.25;2085019;28;19959;-66
2022/08/14 00:13:38;;;;;;;;;;;;;;;28.99;47.81;98873.16;2086996;28;19916;-66
2022/08/14 00:14:38;;;;;;;;;;;;;;;28.99;47.82;98875.91;2092429;28;19923;-66
2022/08/14 00:15:41;;;;;;;;;;;;;;;28.99;47.78;98875.09;2087851;28;19913;-67
2022/08/14 00:16:41;;;;;;;;;;;;;;;28.99;47.89;98867.59;2086730;28;19916;-66
2022/08/14 00:17:42;;;;;;;;;;;;;;;28.98;47.84;98857.59;2093055;28;19915;-66
2022/08/14 00:18:42;;;;;;;;;;;;;;;28.99;47.87;98859.28;2089906;28;19963;-66
2022/08/14 00:19:43;;;;;;;;;;;;;;;28.99;47.92;98862.06;2091834;28;20516;-66
2022/08/14 00:20:43;;;;;;;;;;;;;;;28.99;47.84;98864.00;2089882;28;19920;-66
2022/08/14 00:21:44;;;;;;;;;;;;;;;28.98;47.83;98860.38;2087962;28;19912;-66
2022/08/14 00:22:44;;;;;;;;;;;;;;;28.98;47.95;98857.59;2091713;28;19912;-66
2022/08/14 00:23:45;;;;;;;;;;;;;;;28.98;47.98;98857.59;2090509;28;20262;-66
2022/08/14 00:24:45;;;;;;;;;;;;;;;28.99;47.84;98866.75;2093854;28;20362;-66
2022/08/14 00:25:47;;;;;;;;;;;;;;;28.98;48.02;98871.47;2090838;28;19912;-66
2022/08/14 00:26:47;;;;;;;;;;;;;;;28.99;47.88;98873.16;2092166;28;20057;-66
2022/08/14 00:27:47;;;;;;;;;;;;;;;28.99;47.87;98870.38;2091576;28;20025;-66
2022/08/14 00:28:48;;;;;;;;;;;;;;;28.98;47.81;98879.78;2089775;28;19920;-66
2022/08/14 00:29:48;;;;;;;;;;;;;;;28.99;47.77;98875.91;2085664;28;20850;-66
2022/08/14 00:30:48;;;;;;;;;;;;;;;28.98;47.76;98879.78;2084537;28;19908;-66
2022/08/14 00:31:49;;;;;;;;;;;;;;;28.99;47.80;98875.09;2086735;28;19920;-66
2022/08/14 00:32:49;;;;;;;;;;;;;;;28.99;47.78;98881.47;2092723;28;19923;-66
2022/08/14 00:33:50;;;;;;;;;;;;;;;28.99;47.78;98875.09;2089185;28;19931;-66
2022/08/14 00:34:50;;;;;;;;;;;;;;;28.98;47.77;98874.25;2086162;28;19905;-66
2022/08/14 00:35:50;;;;;;;;;;;;;;;28.99;47.89;98864.81;2091942;28;19944;-65
2022/08/14 00:36:51;;;;;;;;;;;;;;;28.99;48.06;98864.00;2088100;28;20328;-65
2022/08/14 00:37:51;;;;;;;;;;;;;;;28.98;47.88;98868.69;2088779;28;19904;-65
2022/08/14 00:38:51;;;;;;;;;;;;;;;28.99;47.95;98875.91;2085490;28;19932;-65
2022/08/14 00:39:52;;;;;;;;;;;;;;;28.98;48.09;98863.16;2091459;28;20369;-65
2022/08/14 00:40:52;;;;;;;;;;;;;;;28.99;47.90;98873.16;2089884;28;19920;-65
2022/08/14 00:41:52;;;;;;;;;;;;;;;28.99;47.80;98870.38;2087540;28;20765;-65
2022/08/14 00:42:53;;;;;;;;;;;;;;;28.99;47.81;98869.53;2087943;28;20596;-65
2022/08/14 00:43:53;;;;;;;;;;;;;;;28.99;47.87;98875.09;2089846;28;20053;-65
2022/08/14 00:44:54;;;;;;;;;;;;;;;28.99;48.06;98875.09;2089983;28;19905;-65
2022/08/14 00:45:54;;;;;;;;;;;;;;;28.99;47.84;98875.91;2085572;28;19919;-65
2022/08/14 00:46:54;;;;;;;;;;;;;;;28.99;47.91;98877.84;2089900;28;19981;-65
2022/08/14 00:47:55;;;;;;;;;;;;;;;28.99;47.83;98873.16;2084963;28;20565;-65
2022/08/14 00:48:55;;;;;;;;;;;;;;;28.98;47.69;98874.25;2085409;28;19916;-65
2022/08/14 00:49:55;;;;;;;;;;;;;;;28.99;47.83;98873.16;2087736;28;20382;-65
2022/08/14 00:50:56;;;;;;;;;;;;;;;28.98;47.84;98867.81;2091473;28;19916;-65
2022/08/14 00:51:58;;;;;;;;;;;;;;;28.98;47.60;98868.69;2085940;28;19970;-65
2022/08/14 00:52:59;;;;;;;;;;;;;;;28.99;47.83;98869.53;2086059;28;19920;-65
2022/08/14 00:54:01;;;;;;;;;;;;;;;28.98;47.92;98863.16;2085442;28;19905;-66
2022/08/14 00:55:03;;;;;;;;;;;;;;;28.98;47.95;98870.59;2085541;28;19915;-64
2022/08/14 00:56:03;;;;;;;;;;;;;;;28.97;47.93;98864.22;2085624;28;19925;-65
2022/08/14 00:57:04;;;;;;;;;;;;;;;28.98;47.98;98867.81;2085814;28;19920;-65
2022/08/14 00:59:24;;;;;;;;;;;;;;;28.97;48.12;98872.53;2091028;28;19915;-65
2022/08/14 01:00:27;;;;;;;;;;;;;;;28.97;48.04;98875.31;2088558;28;19919;-65
2022/08/14 01:01:28;;;;;;;;;;;;;;;28.97;48.14;98889.19;2087706;28;19941;-65
2022/08/14 01:02:29;;;;;;;;;;;;;;;28.97;48.27;98894.72;2092378;28;19920;-65
2022/08/14 01:03:30;;;;;;;;;;;;;;;28.97;48.32;98893.91;2088690;28;19916;-65
2022/08/14 01:04:32;;;;;;;;;;;;;;;28.97;48.22;98910.53;2089947;28;19919;-65
2022/08/14 01:05:33;;;;;;;;;;;;;;;28.98;48.23;98915.00;2092766;28;19916;-65
2022/08/14 01:06:34;;;;;;;;;;;;;;;28.97;48.46;98911.38;2089996;28;19916;-65
2022/08/14 01:07:34;;;;;;;;;;;;;;;28.97;48.40;98916.94;2084954;28;19985;-65
2022/08/14 01:08:37;;;;;;;;;;;;;;;28.98;48.16;98912.22;2090309;28;19916;-65
2022/08/14 01:09:37;;;;;;;;;;;;;;;28.97;48.28;98922.47;2082184;28;19963;-65
2022/08/14 01:10:50;;;;;;;;;;;;;;;28.97;48.27;98911.38;2092641;28;20306;-65
2022/08/14 01:11:51;;;;;;;;;;;;;;;28.97;48.34;98900.28;2087196;28;19985;-65
2022/08/14 01:12:53;;;;;;;;;;;;;;;28.97;48.14;98897.50;2088439;28;20689;-65
2022/08/14 01:14:00;;;;;;;;;;;;;;;28.97;48.05;98894.72;2090221;28;19962;-65
2022/08/14 01:15:01;;;;;;;;;;;;;;;28.98;47.95;98890.88;2090461;28;19961;-65
2022/08/14 01:16:03;;;;;;;;;;;;;;;28.98;48.28;98879.78;2091325;28;19915;-65
2022/08/14 01:17:04;;;;;;;;;;;;;;;28.97;48.14;98874.47;2087760;28;19916;-65
2022/08/14 01:21:02;;;;;;;;;;;;;;;28.96;48.15;98870.88;2078132;28;19964;-65
2022/08/14 01:22:06;;;;;;;;;;;;;;;28.97;48.29;98868.94;2079973;28;19909;-65
2022/08/14 01:23:10;;;;;;;;;;;;;;;28.97;48.01;98861.44;2078520;28;19923;-65
2022/08/14 01:24:13;;;;;;;;;;;;;;;28.97;48.14;98855.06;2082677;28;20453;-65
2022/08/14 01:25:14;;;;;;;;;;;;;;;28.97;48.38;98844.81;2083238;28;20285;-66
2022/08/14 01:26:19;;;;;;;;;;;;;;;28.97;48.25;98849.50;2087030;28;19939;-65
2022/08/14 01:27:23;;;;;;;;;;;;;;;28.97;48.29;98838.41;2088290;28;19922;-65
2022/08/14 01:28:26;;;;;;;;;;;;;;;28.96;48.18;98832.03;2085938;28;19927;-65
2022/08/14 01:29:34;;;;;;;;;;;;;;;28.96;48.34;98823.72;2087940;28;20561;-65
2022/08/14 01:30:37;;;;;;;;;;;;;;;28.96;48.29;98818.16;2087920;28;19908;-65
2022/08/14 01:32:00;;;;;;;;;;;;;;;28.96;48.14;98818.16;2088062;28;20749;-66
2022/08/14 01:32:58;;;;;;;;;;;;;;;28.95;48.22;98819.25;2083893;28;20507;-65
2022/08/14 01:34:00;;;;;;;;;;;;;;;28.95;48.33;98819.25;2085576;28;19959;-65
2022/08/14 01:35:03;;;;;;;;;;;;;;;28.95;48.36;98824.78;2085659;28;20053;-65
2022/08/14 01:36:04;;;;;;;;;;;;;;;28.95;48.39;98819.25;2091565;28;19915;-65
2022/08/14 01:37:06;;;;;;;;;;;;;;;28.96;48.36;98823.72;2085959;28;19948;-65
2022/08/14 01:38:08;;;;;;;;;;;;;;;28.96;48.22;98815.41;2081272;28;19916;-65
2022/08/14 01:39:12;;;;;;;;;;;;;;;28.96;47.96;98820.09;2092086;28;20537;-65
2022/08/14 01:40:13;;;;;;;;;;;;;;;28.94;48.27;98820.34;2090474;28;20003;-65
2022/08/14 01:41:15;;;;;;;;;;;;;;;28.95;48.19;98816.47;2090401;28;19916;-65
2022/08/14 01:42:15;;;;;;;;;;;;;;;28.95;48.27;98813.69;2087022;28;20324;-65
2022/08/14 01:43:16;;;;;;;;;;;;;;;28.95;48.41;98819.25;2086945;28;20037;-65
2022/08/14 01:44:16;;;;;;;;;;;;;;;28.95;48.44;98824.78;2086859;28;19988;-65
2022/08/14 01:45:17;;;;;;;;;;;;;;;28.95;48.75;98827.56;2085431;28;20671;-65
2022/08/14 01:46:18;;;;;;;;;;;;;;;28.95;48.89;98844.19;2088334;28;19912;-65
2022/08/14 01:47:18;;;;;;;;;;;;;;;28.94;48.77;98845.31;2086167;28;19920;-66
2022/08/14 01:48:19;;;;;;;;;;;;;;;28.95;48.75;98846.97;2089258;28;19916;-65
2022/08/14 01:49:20;;;;;;;;;;;;;;;28.95;48.73;98841.44;2085712;28;19966;-65
2022/08/14 01:50:20;;;;;;;;;;;;;;;28.96;48.86;98847.84;2084534;28;20355;-65
2022/08/14 01:51:23;;;;;;;;;;;;;;;28.95;48.79;98841.44;2088187;28;20494;-65
2022/08/14 01:52:24;;;;;;;;;;;;;;;28.95;48.57;98846.97;2087013;28;19968;-64
2022/08/14 01:53:25;;;;;;;;;;;;;;;28.96;48.69;98854.22;2084096;28;19924;-65
2022/08/14 01:54:25;;;;;;;;;;;;;;;28.95;48.68;98860.84;2086033;28;19913;-65
2022/08/14 01:55:31;;;;;;;;;;;;;;;28.95;48.71;98865.56;2085256;28;19916;-66
2022/08/14 01:56:39;;;;;;;;;;;;;;;28.96;48.75;98870.03;2086030;28;19920;-65
2022/08/14 01:57:42;;;;;;;;;;;;;;;28.96;48.85;98870.88;2085910;28;19915;-66
2022/08/14 01:58:46;;;;;;;;;;;;;;;28.96;48.83;98881.97;2082884;28;20486;-65
2022/08/14 01:59:49;;;;;;;;;;;;;;;28.96;48.76;98881.97;2088506;28;19990;-65
2022/08/14 02:00:53;;;;;;;;;;;;;;;28.97;48.69;98888.34;2087238;28;19987;-65
2022/08/14 02:01:55;;;;;;;;;;;;;;;28.96;48.45;98887.50;2088326;28;19920;-65
2022/08/14 02:02:57;;;;;;;;;;;;;;;28.95;48.53;98896.91;2095180;28;19920;-65
2022/08/14 02:03:57;;;;;;;;;;;;;;;28.95;48.50;98908.00;2097029;28;19942;-65
2022/08/14 02:04:59;;;;;;;;;;;;;;;28.96;48.39;98895.00;2086222;28;19938;-66
2022/08/14 02:06:01;;;;;;;;;;;;;;;28.96;48.40;98900.53;2085851;28;20395;-65
2022/08/14 02:07:02;;;;;;;;;;;;;;;28.96;48.61;98898.59;2085347;28;19921;-65
2022/08/14 02:08:02;;;;;;;;;;;;;;;28.95;48.55;98899.69;2086207;28;19944;-65
2022/08/14 02:09:06;;;;;;;;;;;;;;;28.96;48.76;98904.16;2082284;28;19920;-65
2022/08/14 02:10:07;;;;;;;;;;;;;;;28.95;48.55;98910.78;2085069;28;19913;-65
2022/08/14 02:11:21;;;;;;;;;;;;;;;28.94;48.48;98906.31;2086761;28;19920;-65
2022/08/14 02:12:23;;;;;;;;;;;;;;;28.95;48.15;98909.94;2084759;28;19916;-66
2022/08/14 02:13:23;;;;;;;;;;;;;;;28.94;48.23;98911.88;2087342;28;19920;-65
2022/08/14 02:14:24;;;;;;;;;;;;;;;28.93;48.50;98910.16;2085366;28;20722;-65
2022/08/14 02:15:24;;;;;;;;;;;;;;;28.95;48.91;98913.53;2090952;28;19984;-65
2022/08/14 02:16:28;;;;;;;;;;;;;;;28.94;48.91;98914.66;2089206;28;20870;-66
2022/08/14 02:17:28;;;;;;;;;;;;;;;28.94;48.97;98911.88;2085073;28;20402;-65
2022/08/14 02:18:29;;;;;;;;;;;;;;;28.94;49.20;98911.03;2086186;28;20477;-65
2022/08/14 02:19:30;;;;;;;;;;;;;;;28.92;49.26;98905.72;2083566;28;19912;-65
2022/08/14 02:20:32;;;;;;;;;;;;;;;28.93;49.19;98907.38;2086113;28;20324;-66
2022/08/14 02:21:33;;;;;;;;;;;;;;;28.92;49.22;98908.50;2086355;28;19958;-64
2022/08/14 02:22:33;;;;;;;;;;;;;;;28.92;49.59;98919.59;2089086;28;20468;-65
2022/08/14 02:23:34;;;;;;;;;;;;;;;28.92;49.55;98916.81;2088235;28;19913;-65
2022/08/14 02:24:36;;;;;;;;;;;;;;;28.91;49.64;98917.91;2088352;28;20035;-65
2022/08/14 02:25:37;;;;;;;;;;;;;;;28.91;49.74;98917.91;2089389;28;19944;-65
2022/08/14 02:26:39;;;;;;;;;;;;;;;28.92;49.77;98924.31;2088734;28;19920;-65
2022/08/14 02:27:41;;;;;;;;;;;;;;;28.92;49.55;98924.31;2089813;28;19916;-65
2022/08/14 02:28:42;;;;;;;;;;;;;;;28.91;49.46;98926.22;2091430;28;20454;-65
2022/08/14 02:29:42;;;;;;;;;;;;;;;28.91;49.44;98928.13;2087950;28;20031;-65
2022/08/14 02:30:43;;;;;;;;;;;;;;;28.91;49.41;98934.56;2089856;28;20177;-65
2022/08/14 02:31:45;;;;;;;;;;;;;;;28.91;49.55;98931.78;2087302;28;19924;-65
2022/08/14 02:32:45;;;;;;;;;;;;;;;28.91;49.22;98937.31;2085716;28;19912;-65
2022/08/14 02:33:46;;;;;;;;;;;;;;;28.92;49.34;98932.63;2086044;28;19920;-65
2022/08/14 02:34:47;;;;;;;;;;;;;;;28.91;49.24;98940.09;2089297;28;19916;-65
2022/08/14 02:35:47;;;;;;;;;;;;;;;28.91;49.32;98951.19;2086145;28;20045;-65
2022/08/14 02:36:51;;;;;;;;;;;;;;;28.91;49.15;98933.69;2090010;28;19969;-65
2022/08/14 02:37:52;;;;;;;;;;;;;;;28.91;49.29;98939.22;2085563;28;19916;-65
2022/08/14 02:38:52;;;;;;;;;;;;;;;28.91;49.33;98936.47;2086633;28;19915;-65
2022/08/14 02:39:52;;;;;;;;;;;;;;;28.90;49.47;98943.94;2089238;28;20289;-65
2022/08/14 02:40:52;;;;;;;;;;;;;;;28.89;49.37;98945.03;2086138;28;19916;-64
2022/08/14 02:41:53;;;;;;;;;;;;;;;28.90;49.49;98948.66;2091212;28;19908;-65
2022/08/14 02:42:55;;;;;;;;;;;;;;;28.89;49.40;98947.81;2092527;28;20276;-65
2022/08/14 02:43:55;;;;;;;;;;;;;;;28.90;49.59;98960.59;2090350;28;19974;-65
2022/08/14 02:44:55;;;;;;;;;;;;;;;28.89;49.46;98964.47;2091804;28;20226;-65
2022/08/14 02:45:56;;;;;;;;;;;;;;;28.89;49.29;98958.91;2088048;28;19916;-65
2022/08/14 02:46:56;;;;;;;;;;;;;;;28.88;49.38;98965.53;2091459;28;19912;-65
2022/08/14 02:47:56;;;;;;;;;;;;;;;28.89;49.40;98967.22;2090518;28;19923;-66
2022/08/14 02:48:57;;;;;;;;;;;;;;;28.89;49.35;98970.00;2090704;28;20611;-65
2022/08/14 02:49:57;;;;;;;;;;;;;;;28.88;49.32;98970.22;2089124;28;20675;-65
2022/08/14 02:50:58;;;;;;;;;;;;;;;28.88;49.28;98973.84;2089793;28;20458;-65
2022/08/14 02:51:58;;;;;;;;;;;;;;;28.88;49.37;98973.84;2088895;28;19920;-65
2022/08/14 02:52:59;;;;;;;;;;;;;;;28.88;49.18;98979.41;2087888;28;19973;-65
2022/08/14 02:54:00;;;;;;;;;;;;;;;28.88;49.13;98984.09;2090867;28;20424;-66
2022/08/14 02:55:00;;;;;;;;;;;;;;;28.88;49.26;98984.94;2088295;28;20937;-65
2022/08/14 02:56:01;;;;;;;;;;;;;;;28.88;49.37;98990.50;2084696;28;20167;-65
2022/08/14 02:57:06;;;;;;;;;;;;;;;28.88;49.60;98993.25;2084680;28;19920;-65
2022/08/14 02:58:06;;;;;;;;;;;;;;;28.87;49.66;98991.59;2085228;28;20383;-65
2022/08/14 02:59:08;;;;;;;;;;;;;;;28.87;49.73;98994.34;2083488;28;20614;-65
2022/08/14 03:00:12;;;;;;;;;;;;;;;28.86;49.66;98998.22;2085177;28;20348;-65
2022/08/14 03:01:13;;;;;;;;;;;;;;;28.85;49.78;99000.13;2085440;28;19959;-65
2022/08/14 03:02:13;;;;;;;;;;;;;;;28.85;49.76;99000.13;2087486;28;19966;-65
2022/08/14 03:03:15;;;;;;;;;;;;;;;28.86;49.98;99014.88;2086291;28;19951;-66
2022/08/14 03:04:16;;;;;;;;;;;;;;;28.86;49.90;99003.78;2091888;28;19955;-65
2022/08/14 03:05:16;;;;;;;;;;;;;;;28.85;49.66;98999.31;2091527;28;19920;-66
2022/08/14 03:06:19;;;;;;;;;;;;;;;28.84;49.92;98998.47;2090555;28;19951;-65
2022/08/14 03:07:19;;;;;;;;;;;;;;;28.85;49.69;99002.06;2084910;28;19916;-65
2022/08/14 03:08:30;;;;;;;;;;;;;;;28.85;49.72;99004.84;2084886;28;19992;-65
2022/08/14 03:09:31;;;;;;;;;;;;;;;28.85;49.73;99005.69;2086298;28;19947;-66
2022/08/14 03:10:32;;;;;;;;;;;;;;;28.84;49.64;98998.47;2087784;28;19942;-65
2022/08/14 03:11:32;;;;;;;;;;;;;;;28.85;49.71;99007.63;2086911;28;20444;-65
2022/08/14 03:12:33;;;;;;;;;;;;;;;28.86;49.69;99009.31;2087905;28;19922;-65
2022/08/14 03:13:34;;;;;;;;;;;;;;;28.86;49.56;99003.78;2088308;28;20578;-65
2022/08/14 03:14:38;;;;;;;;;;;;;;;28.85;49.42;99010.38;2090174;28;20449;-65
2022/08/14 03:15:42;;;;;;;;;;;;;;;28.84;49.62;99005.94;2093538;28;20190;-65
2022/08/14 03:16:44;;;;;;;;;;;;;;;28.85;49.55;99007.63;2089295;28;20559;-65
2022/08/14 03:17:44;;;;;;;;;;;;;;;28.84;49.69;99006.78;2088035;28;19917;-65
2022/08/14 03:18:45;;;;;;;;;;;;;;;28.85;49.63;99010.38;2091379;28;19920;-65
2022/08/14 03:19:45;;;;;;;;;;;;;;;28.85;49.74;99007.63;2088142;28;19908;-66
2022/08/14 03:20:46;;;;;;;;;;;;;;;28.85;49.74;99013.16;2089878;28;20557;-65
2022/08/14 03:21:46;;;;;;;;;;;;;;;28.85;49.67;99018.72;2088910;28;19916;-65
2022/08/14 03:22:46;;;;;;;;;;;;;;;28.84;49.85;99012.31;2089960;28;19920;-65
2022/08/14 03:23:48;;;;;;;;;;;;;;;28.84;49.63;99017.03;2085844;28;19923;-66
2022/08/14 03:24:48;;;;;;;;;;;;;;;28.84;49.63;99022.59;2089196;28;19916;-65
2022/08/14 03:25:49;;;;;;;;;;;;;;;28.84;49.74;99017.88;2086456;28;19912;-65
2022/08/14 03:26:50;;;;;;;;;;;;;;;28.84;49.51;99019.81;2090643;28;19985;-65
2022/08/14 03:27:50;;;;;;;;;;;;;;;28.84;49.64;99011.50;2087506;28;20578;-65
2022/08/14 03:28:51;;;;;;;;;;;;;;;28.85;49.78;99021.47;2092223;28;20252;-65
2022/08/14 03:29:51;;;;;;;;;;;;;;;28.84;49.67;99022.59;2089371;28;20626;-65
2022/08/14 03:30:51;;;;;;;;;;;;;;;28.84;49.74;99017.03;2089061;28;19912;-65
2022/08/14 03:31:52;;;;;;;;;;;;;;;28.84;49.84;99017.88;2093883;28;19927;-65
2022/08/14 03:32:52;;;;;;;;;;;;;;;28.84;49.69;99025.34;2092027;28;19927;-65
2022/08/14 03:33:53;;;;;;;;;;;;;;;28.84;49.83;99019.81;2091562;28;19916;-65
2022/08/14 03:34:53;;;;;;;;;;;;;;;28.83;49.76;99023.66;2089095;28;20276;-65
2022/08/14 03:35:53;;;;;;;;;;;;;;;28.83;50.07;99026.44;2089025;28;19962;-65
2022/08/14 03:36:55;;;;;;;;;;;;;;;28.82;50.25;99019.19;2093512;28;19912;-65
2022/08/14 03:38:07;;;;;;;;;;;;;;;28.81;50.66;99017.50;2091606;28;19916;-65
2022/08/14 03:39:09;;;;;;;;;;;;;;;28.79;50.63;99020.53;2089131;28;20015;-65
2022/08/14 03:40:10;;;;;;;;;;;;;;;28.79;50.85;99016.91;2087439;28;19942;-65
2022/08/14 03:41:15;;;;;;;;;;;;;;;28.80;51.12;99024.13;2091700;28;19927;-65
2022/08/14 03:42:15;;;;;;;;;;;;;;;28.80;51.15;99024.13;2091414;28;20419;-65
2022/08/14 03:43:15;;;;;;;;;;;;;;;28.78;51.15;99024.38;2093905;28;20416;-65
2022/08/14 03:44:16;;;;;;;;;;;;;;;28.79;51.27;99019.69;2089022;28;20042;-64
2022/08/14 03:45:17;;;;;;;;;;;;;;;28.78;51.29;99020.75;2090017;28;19962;-66
2022/08/14 03:46:17;;;;;;;;;;;;;;;28.79;51.15;99019.69;2090189;28;19922;-65
2022/08/14 03:47:18;;;;;;;;;;;;;;;28.79;51.24;99022.47;2091362;28;19923;-65
2022/08/14 03:48:18;;;;;;;;;;;;;;;28.78;51.23;99026.31;2092779;28;19912;-65
2022/08/14 03:49:23;;;;;;;;;;;;;;;28.77;51.16;99022.69;2091091;28;19928;-65
2022/08/14 03:50:23;;;;;;;;;;;;;;;28.78;51.02;99024.38;2089690;28;19939;-65
2022/08/14 03:51:27;;;;;;;;;;;;;;;28.79;50.84;99026.06;2086076;28;19913;-65
2022/08/14 03:52:27;;;;;;;;;;;;;;;28.79;50.82;99026.06;2090857;28;19927;-65
2022/08/14 03:53:28;;;;;;;;;;;;;;;28.79;50.68;99019.69;2093764;28;19959;-65
2022/08/14 03:54:28;;;;;;;;;;;;;;;28.79;50.70;99025.22;2090194;28;19916;-65
2022/08/14 03:55:29;;;;;;;;;;;;;;;28.79;50.63;99022.47;2092777;28;20027;-65
2022/08/14 03:56:29;;;;;;;;;;;;;;;28.79;50.64;99019.69;2089662;28;19920;-66
2022/08/14 03:57:31;;;;;;;;;;;;;;;28.79;50.46;99017.75;2089089;28;20482;-65
2022/08/14 03:58:31;;;;;;;;;;;;;;;28.79;50.53;99014.16;2086807;28;20027;-65
2022/08/14 03:59:32;;;;;;;;;;;;;;;28.80;50.60;99010.28;2086298;28;19916;-65
2022/08/14 04:00:32;;;;;;;;;;;;;;;28.79;50.29;99009.44;2085176;28;20717;-65
2022/08/14 04:01:32;;;;;;;;;;;;;;;28.80;50.34;99021.38;2086788;28;19917;-65
2022/08/14 04:02:33;;;;;;;;;;;;;;;28.80;50.28;99015.81;2091632;28;19916;-65
2022/08/14 04:03:33;;;;;;;;;;;;;;;28.79;50.48;99009.44;2092672;28;19924;-66
2022/08/14 04:04:33;;;;;;;;;;;;;;;28.82;50.14;99010.88;2087802;28;19923;-65
2022/08/14 04:05:36;;;;;;;;;;;;;;;28.82;50.11;99019.19;2093809;28;20476;-65
2022/08/14 04:06:36;;;;;;;;;;;;;;;28.82;50.26;99016.44;2086671;28;19916;-64
2022/08/14 04:07:37;;;;;;;;;;;;;;;28.82;50.11;99008.09;2090997;28;19983;-65
2022/08/14 04:08:38;;;;;;;;;;;;;;;28.81;50.14;99003.63;2088063;28;20221;-65
2022/08/14 04:09:39;;;;;;;;;;;;;;;28.81;50.24;99000.84;2085269;28;20053;-65
2022/08/14 04:10:39;;;;;;;;;;;;;;;28.82;50.14;99002.56;2085752;28;20002;-65
2022/08/14 04:11:39;;;;;;;;;;;;;;;28.80;50.28;98999.19;2085458;28;20511;-65
2022/08/14 04:12:40;;;;;;;;;;;;;;;28.81;50.31;99006.41;2086207;28;19928;-65
2022/08/14 04:13:41;;;;;;;;;;;;;;;28.81;50.44;99011.94;2086965;28;19943;-66
2022/08/14 04:14:42;;;;;;;;;;;;;;;28.81;50.32;99004.50;2087897;28;19974;-66
2022/08/14 04:15:44;;;;;;;;;;;;;;;28.80;50.45;99010.28;2087708;28;19923;-65
2022/08/14 04:16:45;;;;;;;;;;;;;;;28.79;50.48;99008.59;2089392;28;19917;-65
2022/08/14 04:17:45;;;;;;;;;;;;;;;28.80;50.41;99010.28;2091106;28;19912;-65
2022/08/14 04:18:47;;;;;;;;;;;;;;;28.80;50.32;99021.38;2090000;28;19912;-65
2022/08/14 04:19:47;;;;;;;;;;;;;;;28.78;50.51;99023.53;2089385;28;20146;-65
2022/08/14 04:20:48;;;;;;;;;;;;;;;28.78;50.71;99017.97;2089273;28;19916;-65
2022/08/14 04:21:49;;;;;;;;;;;;;;;28.77;50.76;99021.84;2091602;28;19924;-65
2022/08/14 04:22:50;;;;;;;;;;;;;;;28.77;51.26;99021.84;2090791;28;19965;-65
2022/08/14 04:23:53;;;;;;;;;;;;;;;28.77;51.03;99016.31;2086436;28;20574;-65
2022/08/14 04:24:54;;;;;;;;;;;;;;;28.76;51.36;99015.47;2086751;28;20397;-65
2022/08/14 04:25:54;;;;;;;;;;;;;;;28.76;51.22;99023.78;2090847;28;19912;-65
2022/08/14 04:26:54;;;;;;;;;;;;;;;28.76;51.37;99020.16;2092461;28;20641;-65
2022/08/14 04:27:55;;;;;;;;;;;;;;;28.75;51.33;99012.91;2092683;28;19916;-65
2022/08/14 04:28:55;;;;;;;;;;;;;;;28.75;51.38;99012.91;2092732;28;19968;-65
2022/08/14 04:29:56;;;;;;;;;;;;;;;28.75;51.35;99012.91;2092630;28;20409;-65
2022/08/14 04:30:56;;;;;;;;;;;;;;;28.74;51.25;99012.09;2087627;28;19912;-65
2022/08/14 04:31:56;;;;;;;;;;;;;;;28.75;51.12;99010.16;2091672;28;19927;-65
2022/08/14 04:32:57;;;;;;;;;;;;;;;28.76;51.25;99020.16;2090445;28;19951;-65
2022/08/14 04:33:57;;;;;;;;;;;;;;;28.76;51.12;99014.59;2089663;28;19923;-65
2022/08/14 04:34:58;;;;;;;;;;;;;;;28.76;51.16;99015.47;2089237;28;20058;-65
2022/08/14 04:35:59;;;;;;;;;;;;;;;28.75;51.09;99013.75;2085074;28;19916;-65
2022/08/14 04:43:35;;;;;;;;;;;;;;;28.78;50.78;99017.97;2092342;28;19920;-65
2022/08/14 04:44:35;;;;;;;;;;;;;;;28.78;50.60;99012.44;2091197;28;20018;-65
2022/08/14 04:45:39;;;;;;;;;;;;;;;28.78;50.68;99012.44;2092011;28;19912;-65
2022/08/14 04:48:11;;;;;;;;;;;;;;;28.78;50.53;99023.53;2086301;28;19962;-65
2022/08/14 04:48:13;;;;;;;;;;;;;;;28.79;50.51;99028.00;2086703;28;20054;-65
2022/08/14 04:49:13;;;;;;;;;;;;;;;28.78;50.50;99017.97;2085368;28;19922;-65
2022/08/14 04:50:13;;;;;;;;;;;;;;;28.78;50.53;99026.31;2092460;28;19909;-65
2022/08/14 04:51:15;;;;;;;;;;;;;;;28.79;50.31;99019.69;2089685;28;19923;-65
2022/08/14 04:52:15;;;;;;;;;;;;;;;28.79;50.56;99019.69;2090338;28;19916;-64
2022/08/14 04:53:19;;;;;;;;;;;;;;;28.79;50.45;99025.22;2090727;28;19924;-65
2022/08/14 04:54:20;;;;;;;;;;;;;;;28.79;50.45;99022.47;2087941;28;20096;-65
2022/08/14 04:55:20;;;;;;;;;;;;;;;28.79;50.51;99025.22;2092785;28;20020;-65
2022/08/14 04:56:22;;;;;;;;;;;;;;;28.78;50.39;99029.06;2087248;28;19920;-65
2022/08/14 04:57:23;;;;;;;;;;;;;;;28.78;50.60;99024.38;2079425;28;19990;-65
2022/08/14 04:58:25;;;;;;;;;;;;;;;28.78;50.37;99027.13;2081767;28;20691;-65
2022/08/14 04:59:25;;;;;;;;;;;;;;;28.78;50.29;99024.38;2076744;28;19920;-65
2022/08/14 05:00:26;;;;;;;;;;;;;;;28.79;50.46;99025.22;2079955;28;20410;-66
2022/08/14 05:01:26;;;;;;;;;;;;;;;28.77;50.52;99028.22;2083659;28;19916;-65
2022/08/14 05:02:27;;;;;;;;;;;;;;;28.77;50.58;99021.84;2070552;28;19932;-66
2022/08/14 05:03:28;;;;;;;;;;;;;;;28.76;50.69;99022.91;2074462;28;19964;-65
2022/08/14 05:04:29;;;;;;;;;;;;;;;28.76;50.81;99014.59;2081804;28;19917;-65
2022/08/14 05:05:32;;;;;;;;;;;;;;;28.75;50.91;99018.47;2077440;28;19904;-66
2022/08/14 05:06:33;;;;;;;;;;;;;;;28.75;50.88;99012.91;2076228;28;19935;-65
2022/08/14 05:07:33;;;;;;;;;;;;;;;28.75;51.02;99018.47;2077123;28;19908;-65
2022/08/14 05:08:36;;;;;;;;;;;;;;;28.75;51.10;99018.47;2077210;28;20413;-65
2022/08/14 05:09:36;;;;;;;;;;;;;;;28.74;50.96;99025.13;2077757;28;19912;-65
2022/08/14 05:10:39;;;;;;;;;;;;;;;28.75;51.10;99029.56;2076160;28;19916;-66
2022/08/14 05:11:40;;;;;;;;;;;;;;;28.74;51.00;99027.88;2076169;28;20539;-65
2022/08/14 05:12:41;;;;;;;;;;;;;;;28.74;51.02;99030.66;2075168;28;19921;-65
2022/08/14 05:13:42;;;;;;;;;;;;;;;28.74;51.02;99030.66;2075546;28;19919;-66
2022/08/14 05:14:43;;;;;;;;;;;;;;;28.74;50.95;99038.97;2076317;28;19917;-65
2022/08/14 05:15:45;;;;;;;;;;;;;;;28.74;50.92;99030.66;2075896;28;19917;-65
2022/08/14 05:16:47;;;;;;;;;;;;;;;28.75;51.00;99035.09;2080489;28;19919;-65
2022/08/14 05:17:48;;;;;;;;;;;;;;;28.74;50.96;99033.44;2078708;28;19916;-65
2022/08/14 05:18:48;;;;;;;;;;;;;;;28.75;50.83;99040.66;2076614;28;20003;-65
2022/08/14 05:19:49;;;;;;;;;;;;;;;28.75;50.87;99032.34;2076939;28;20013;-65
2022/08/14 05:20:50;;;;;;;;;;;;;;;28.74;50.85;99033.44;2080326;28;19959;-65
2022/08/14 05:21:54;;;;;;;;;;;;;;;28.73;50.76;99032.56;2090210;28;20570;-65
2022/08/14 05:22:54;;;;;;;;;;;;;;;28.75;50.78;99032.34;2079754;28;19964;-65
2022/08/14 05:23:55;;;;;;;;;;;;;;;28.75;50.90;99026.78;2080742;28;19924;-65
2022/08/14 05:24:55;;;;;;;;;;;;;;;28.74;50.82;99027.88;2077133;28;19916;-65
2022/08/14 05:26:02;;;;;;;;;;;;;;;28.74;50.95;99030.66;2082018;28;19955;-65
2022/08/14 05:27:02;;;;;;;;;;;;;;;28.74;50.99;99033.44;2081028;28;19916;-65
2022/08/14 05:28:18;;;;;;;;;;;;;;;28.73;51.11;99032.56;2079990;28;19962;-65
2022/08/14 05:29:18;;;;;;;;;;;;;;;28.73;51.21;99037.28;2078642;28;19921;-65
2022/08/14 05:30:18;;;;;;;;;;;;;;;28.73;51.21;99031.72;2081021;28;19923;-65
2022/08/14 05:31:19;;;;;;;;;;;;;;;28.73;51.22;99042.81;2077074;28;19920;-65